createdAt,value
2019-04-16T07:16:27.850Z,1029.29
2019-04-16T07:17:23.226Z,1029.29
2019-04-16T07:18:23.231Z,1029.32
2019-04-16T07:19:23.233Z,1029.23
2019-04-16T07:20:23.237Z,1029.32
2019-04-16T07:21:23.243Z,1029.45
2019-04-16T07:22:23.245Z,1029.57
2019-04-16T07:23:24.599Z,1029.66
2019-04-16T07:24:23.807Z,1029.79
2019-04-16T07:25:26.787Z,1029.84
2019-04-16T07:26:23.291Z,1029.9
2019-04-16T07:27:23.275Z,1029.97
2019-04-16T07:28:25.544Z,1030
2019-04-16T07:29:23.329Z,1030.05
2019-04-16T07:30:23.331Z,1030.02
2019-04-16T07:31:33.062Z,1029.93
2019-04-16T07:32:23.387Z,1029.84
2019-04-16T07:33:23.293Z,1029.66
2019-04-16T07:34:23.297Z,1029.6
2019-04-16T07:35:23.302Z,1029.47
2019-04-16T07:37:23.320Z,1029.31
2019-04-16T07:38:29.580Z,1029.13
2019-04-16T07:39:30.439Z,1029.04
2019-04-16T07:40:23.338Z,1028.93
2019-04-16T07:41:23.332Z,1028.8
2019-04-16T07:42:26.200Z,1028.69
2019-04-16T07:43:23.345Z,1028.48
2019-04-16T07:44:23.350Z,1028.31
2019-04-16T07:45:23.356Z,1028.19
2019-04-16T07:46:23.361Z,1028.07
2019-04-16T07:47:23.366Z,1027.96
2019-04-16T07:48:23.666Z,1027.93
2019-04-16T07:49:25.966Z,1027.89
2019-04-16T07:50:23.387Z,1027.86
2019-04-16T07:51:23.394Z,1027.89
2019-04-16T07:52:23.400Z,1027.82
2019-04-16T07:53:23.407Z,1027.81
2019-04-16T07:54:23.414Z,1027.81
2019-04-16T07:55:23.602Z,1027.78
2019-04-16T07:56:23.432Z,1027.76
2019-04-16T07:57:23.435Z,1027.71
2019-04-16T07:58:23.442Z,1027.71
2019-04-16T07:59:23.451Z,1027.84
2019-04-16T08:00:23.455Z,1028.09
2019-04-16T08:01:23.462Z,1028.4
2019-04-16T08:02:23.469Z,1028.65
2019-04-16T08:03:26.514Z,1028.86
2019-04-16T08:04:28.873Z,1029.05
2019-04-16T08:05:23.489Z,1029.3
2019-04-16T08:06:23.495Z,1029.54
2019-04-16T08:07:23.500Z,1029.66
2019-04-16T08:08:24.579Z,1029.72
2019-04-16T08:09:23.512Z,1029.79
2019-04-16T08:10:23.517Z,1029.88
2019-04-16T08:11:23.533Z,1029.91
2019-04-16T08:12:30.222Z,1029.92
2019-04-16T08:13:23.534Z,1029.9
2019-04-16T08:14:23.538Z,1029.96
2019-04-16T08:15:23.545Z,1029.93
2019-04-16T08:16:23.549Z,1029.99
2019-04-16T08:17:23.555Z,1029.98
2019-04-16T08:18:23.683Z,1030.04
2019-04-16T08:19:35.964Z,1030.03
2019-04-16T08:20:23.567Z,1030.07
2019-04-16T08:21:23.570Z,1030.07
2019-04-16T08:22:23.631Z,1030.1
2019-04-16T08:23:23.578Z,1030.12
2019-04-16T08:24:24.663Z,1030.36
2019-04-16T08:25:23.586Z,1030.91
2019-04-16T08:26:23.589Z,1031.72
2019-04-16T08:27:23.595Z,1032.38
2019-04-16T08:28:23.596Z,1032.99
2019-04-16T08:29:26.277Z,1033.49
2019-04-16T08:30:23.601Z,1033.92
2019-04-16T08:31:23.601Z,1034.25
2019-04-16T08:32:25.689Z,1034.56
2019-04-16T08:33:28.168Z,1034.77
2019-04-16T08:34:23.602Z,1035.04
2019-04-16T08:35:23.602Z,1035.19
2019-04-16T08:36:23.600Z,1035.37
2019-04-16T08:37:23.599Z,1035.56
2019-04-16T08:38:25.962Z,1035.76
2019-04-16T08:39:23.596Z,1035.89
2019-04-16T08:40:23.593Z,1036.09
2019-04-16T08:41:23.594Z,1036.17
2019-04-16T08:42:25.197Z,1036.25
2019-04-16T08:43:23.585Z,1036.39
2019-04-16T08:44:23.584Z,1036.33
2019-04-16T08:45:23.577Z,1036.42
2019-04-16T08:46:23.573Z,1036.5
2019-04-16T08:47:23.570Z,1036.52
2019-04-16T08:48:23.565Z,1036.57
2019-04-16T08:49:23.560Z,1036.59
2019-04-16T08:50:26.101Z,1036.67
2019-04-16T08:51:29.989Z,1036.72
2019-04-16T08:52:23.547Z,1036.77
2019-04-16T08:53:23.543Z,1036.81
2019-04-16T08:54:23.539Z,1036.86
2019-04-16T08:55:24.203Z,1036.95
2019-04-16T08:56:23.527Z,1036.94
2019-04-16T08:57:23.522Z,1036.9
2019-04-16T08:58:23.516Z,1037.02
2019-04-16T08:59:23.511Z,1037.05
2019-04-16T09:00:23.505Z,1037.1
2019-04-16T09:01:23.702Z,1036.98
2019-04-16T09:02:26.986Z,1037.04
2019-04-16T09:03:23.488Z,1036.99
2019-04-16T09:04:23.481Z,1037.08
2019-04-16T09:05:23.474Z,1037
2019-04-16T09:06:23.468Z,1036.96
2019-04-16T09:07:23.463Z,1036.94
2019-04-16T09:08:23.458Z,1036.91
2019-04-16T09:09:24.654Z,1036.84
2019-04-16T09:10:24.142Z,1036.87
2019-04-16T09:11:24.031Z,1036.79
2019-04-16T09:12:23.504Z,1036.79
2019-04-16T09:13:23.424Z,1036.82
2019-04-16T09:14:25.614Z,1036.8
2019-04-16T09:15:26.783Z,1036.78
2019-04-16T09:16:23.405Z,1036.84
2019-04-16T09:17:23.397Z,1036.88
2019-04-16T09:18:23.393Z,1036.95
2019-04-16T09:19:23.388Z,1036.94
2019-04-16T09:20:23.561Z,1036.92
2019-04-16T09:21:23.373Z,1036.83
2019-04-16T09:22:23.369Z,1036.84
2019-04-16T09:23:26.570Z,1036.95
2019-04-16T09:24:23.353Z,1036.95
2019-04-16T09:25:23.347Z,1036.86
2019-04-16T09:26:23.936Z,1036.86
2019-04-16T09:27:28.300Z,1036.83
2019-04-16T09:28:26.188Z,1036.72
2019-04-16T09:29:23.325Z,1036.79
2019-04-16T09:30:23.314Z,1036.76
2019-04-16T09:31:23.309Z,1036.77
2019-04-16T09:32:24.528Z,1036.66
2019-04-16T09:33:23.294Z,1036.73
2019-04-16T09:34:23.287Z,1036.57
2019-04-16T09:35:23.286Z,1036.65
2019-04-16T09:36:23.274Z,1036.74
2019-04-16T09:37:25.386Z,1036.69
2019-04-16T09:38:23.261Z,1036.71
2019-04-16T09:39:23.254Z,1036.7
2019-04-16T09:40:23.248Z,1036.68
2019-04-16T09:41:23.241Z,1036.78
2019-04-16T09:42:23.235Z,1036.63
2019-04-16T09:43:23.229Z,1036.65
2019-04-16T09:44:23.357Z,1036.53
2019-04-16T09:45:24.802Z,1036.5
2019-04-16T09:46:46.530Z,1036.57
2019-04-16T09:47:23.201Z,1036.66
2019-04-16T09:48:23.197Z,1036.58
2019-04-16T09:49:23.229Z,1036.62
2019-04-16T09:50:23.183Z,1036.66
2019-04-16T09:51:25.323Z,1036.71
2019-04-16T09:52:24.063Z,1036.58
2019-04-16T09:53:33.362Z,1036.61
2019-04-16T09:54:23.157Z,1036.59
2019-04-16T09:55:23.151Z,1036.58
2019-04-16T09:56:26.385Z,1036.55
2019-04-16T09:57:24.396Z,1036.51
2019-04-16T09:58:23.129Z,1036.41
2019-04-16T09:59:23.126Z,1036.47
2019-04-16T10:00:23.120Z,1036.39
2019-04-16T10:01:23.116Z,1036.58
2019-04-16T10:02:23.105Z,1036.54
2019-04-16T10:03:23.099Z,1036.65
2019-04-16T10:04:23.091Z,1036.56
2019-04-16T10:05:23.333Z,1036.74
2019-04-16T10:06:23.084Z,1036.62
2019-04-16T10:07:23.072Z,1036.66
2019-04-16T10:08:23.065Z,1036.86
2019-04-16T10:09:23.192Z,1036.67
2019-04-16T10:10:23.923Z,1036.82
2019-04-16T10:11:23.046Z,1036.73
2019-04-16T10:12:23.040Z,1036.57
2019-04-16T10:13:30.627Z,1036.63
2019-04-16T10:14:23.027Z,1036.58
2019-04-16T10:15:23.019Z,1036.56
2019-04-16T10:16:23.018Z,1036.67
2019-04-16T10:17:23.007Z,1036.66
2019-04-16T10:18:23.125Z,1036.55
2019-04-16T10:19:22.993Z,1036.56
2019-04-16T10:20:22.995Z,1036.62
2019-04-16T10:21:22.981Z,1036.68
2019-04-16T10:22:22.973Z,1036.57
2019-04-16T10:23:22.967Z,1036.57
2019-04-16T10:24:23.190Z,1036.59
2019-04-16T10:25:22.955Z,1036.59
2019-04-16T10:26:22.948Z,1036.62
2019-04-16T10:27:22.942Z,1036.58
2019-04-16T10:28:22.937Z,1036.73
2019-04-16T10:29:22.938Z,1036.68
2019-04-16T10:30:22.994Z,1036.6
2019-04-16T10:31:22.915Z,1036.66
2019-04-16T10:32:22.924Z,1036.62
2019-04-16T10:33:22.901Z,1036.53
2019-04-16T10:34:22.900Z,1036.43
2019-04-16T10:35:22.898Z,1036.43
2019-04-16T10:36:22.880Z,1036.41
2019-04-16T10:37:22.874Z,1036.24
2019-04-16T10:38:22.870Z,1036.34
2019-04-16T10:39:22.861Z,1036.4
2019-04-16T10:40:22.856Z,1036.39
2019-04-16T10:41:22.851Z,1036.29
2019-04-16T10:42:22.850Z,1036.38
2019-04-16T10:43:22.834Z,1036.49
2019-04-16T10:44:22.830Z,1036.26
2019-04-16T10:45:22.821Z,1036.22
2019-04-16T10:46:22.818Z,1036.32
2019-04-16T10:47:22.817Z,1036.24
2019-04-16T10:48:22.808Z,1036.28
2019-04-16T10:49:22.804Z,1036.24
2019-04-16T10:50:22.788Z,1036.24
2019-04-16T10:51:22.783Z,1036.17
2019-04-16T10:52:22.782Z,1036.24
2019-04-16T10:53:22.780Z,1036.22
2019-04-16T10:54:22.763Z,1036.17
2019-04-16T10:55:22.755Z,1036.13
2019-04-16T10:56:22.749Z,1036.21
2019-04-16T10:57:22.744Z,1036.11
2019-04-16T10:58:22.742Z,1036.18
2019-04-16T10:59:22.749Z,1036.23
2019-04-16T11:00:22.721Z,1036.19
2019-04-16T11:01:22.715Z,1036.14
2019-04-16T11:02:22.708Z,1036.18
2019-04-16T11:03:22.708Z,1036.16
2019-04-16T11:04:22.710Z,1036.16
2019-04-16T11:05:22.714Z,1036.05
2019-04-16T11:06:22.681Z,1036.11
2019-04-16T11:07:22.676Z,1036.05
2019-04-16T11:08:22.707Z,1036.11
2019-04-16T11:09:22.662Z,1036.11
2019-04-16T11:11:22.684Z,1035.94
2019-04-16T11:12:22.647Z,1035.91
2019-04-16T11:13:22.666Z,1036.09
2019-04-16T11:14:22.631Z,1036.02
2019-04-16T11:15:22.647Z,1035.86
2019-04-16T11:16:22.813Z,1036.08
2019-04-16T11:17:22.609Z,1036
2019-04-16T11:18:22.609Z,1035.99
2019-04-16T11:19:22.604Z,1035.98
2019-04-16T11:20:22.609Z,1036.03
2019-04-16T11:21:22.596Z,1035.97
2019-04-16T11:22:22.608Z,1035.98
2019-04-16T11:23:22.571Z,1035.93
2019-04-16T11:24:22.565Z,1036
2019-04-16T11:25:22.558Z,1035.92
2019-04-16T11:26:22.552Z,1035.9
2019-04-16T11:27:22.547Z,1035.97
2019-04-16T11:28:22.575Z,1035.89
2019-04-16T11:29:22.532Z,1035.94
2019-04-16T11:30:22.617Z,1035.87
2019-04-16T11:31:22.555Z,1035.88
2019-04-16T11:32:22.513Z,1035.86
2019-04-16T11:33:22.507Z,1035.95
2019-04-16T11:34:22.501Z,1035.86
2019-04-16T11:36:22.505Z,1035.78
2019-04-16T11:37:22.480Z,1035.76
2019-04-16T11:38:22.512Z,1035.78
2019-04-16T11:39:22.502Z,1035.82
2019-04-16T11:40:22.496Z,1035.74
2019-04-16T11:41:22.455Z,1035.69
2019-04-16T11:42:22.461Z,1035.64
2019-04-16T11:43:22.472Z,1035.81
2019-04-16T11:44:22.441Z,1035.72
2019-04-16T11:45:22.443Z,1035.62
2019-04-16T11:46:22.427Z,1035.65
2019-04-16T11:47:22.418Z,1035.73
2019-04-16T11:48:22.410Z,1035.64
2019-04-16T11:49:22.446Z,1035.71
2019-04-16T11:50:22.421Z,1035.65
2019-04-16T11:51:22.422Z,1035.75
2019-04-16T11:52:22.413Z,1035.68
2019-04-16T11:53:22.417Z,1035.65
2019-04-16T11:54:22.371Z,1035.63
2019-04-16T11:55:22.370Z,1035.57
2019-04-16T11:56:22.849Z,1035.56
2019-04-16T11:57:22.352Z,1035.55
2019-04-16T11:58:22.359Z,1035.55
2019-04-16T11:59:22.353Z,1035.54
2019-04-16T12:00:22.336Z,1035.51
2019-04-16T12:01:23.107Z,1035.6
2019-04-16T12:02:22.322Z,1035.54
2019-04-16T12:03:22.332Z,1035.59
2019-04-16T12:04:22.325Z,1035.54
2019-04-16T12:05:22.316Z,1035.51
2019-04-16T12:06:28.188Z,1035.46
2019-04-16T12:07:22.295Z,1035.5
2019-04-16T12:08:22.289Z,1035.41
2019-04-16T12:09:22.300Z,1035.34
2019-04-16T12:10:22.287Z,1035.4
2019-04-16T12:11:22.282Z,1035.47
2019-04-16T12:12:22.305Z,1035.44
2019-04-16T12:13:22.277Z,1035.42
2019-04-16T12:14:29.858Z,1035.36
2019-04-16T12:15:22.242Z,1035.37
2019-04-16T12:17:22.255Z,1035.34
2019-04-16T12:18:22.225Z,1035.35
2019-04-16T12:19:22.261Z,1035.28
2019-04-16T12:20:22.213Z,1035.25
2019-04-16T12:21:22.206Z,1035.3
2019-04-16T12:22:22.201Z,1035.38
2019-04-16T12:23:22.239Z,1035.37
2019-04-16T12:24:22.187Z,1035.45
2019-04-16T12:25:22.210Z,1035.37
2019-04-16T12:26:22.201Z,1035.43
2019-04-16T12:27:22.170Z,1035.38
2019-04-16T12:28:22.165Z,1035.36
2019-04-16T12:29:23.185Z,1035.4
2019-04-16T12:30:22.203Z,1035.46
2019-04-16T12:31:22.154Z,1035.33
2019-04-16T12:32:22.150Z,1035.39
2019-04-16T12:33:22.245Z,1035.32
2019-04-16T12:34:22.143Z,1035.32
2019-04-16T12:35:22.121Z,1035.31
2019-04-16T12:36:22.225Z,1035.23
2019-04-16T12:37:22.110Z,1035.23
2019-04-16T12:48:22.202Z,1035.13
2019-04-16T12:49:22.046Z,1035.01
2019-04-16T12:52:22.375Z,1035.05
2019-04-16T12:53:22.041Z,1035.08
2019-04-16T12:54:25.213Z,1035.03
2019-04-16T12:55:23.746Z,1034.92
2019-04-16T12:56:22.027Z,1034.86
2019-04-16T12:57:22.025Z,1035.15
2019-04-16T12:59:23.037Z,1035.01
2019-04-16T13:00:26.049Z,1034.94
2019-04-16T13:01:21.968Z,1035.06
2019-04-16T13:02:21.964Z,1035.11
2019-04-16T13:03:21.955Z,1034.94
2019-04-16T13:04:21.949Z,1035.02
2019-04-16T13:05:21.944Z,1035
2019-04-16T13:06:25.832Z,1035.01
2019-04-16T13:07:21.932Z,1034.95
2019-04-16T13:08:21.926Z,1034.91
2019-04-16T13:09:21.920Z,1034.93
2019-04-16T13:10:21.913Z,1035.05
2019-04-16T13:11:21.908Z,1035.05
2019-04-16T13:12:21.902Z,1034.97
2019-04-16T13:13:21.899Z,1034.89
2019-04-16T13:14:21.890Z,1034.86
2019-04-16T13:15:21.884Z,1034.77
2019-04-16T13:16:21.878Z,1034.93
2019-04-16T13:17:21.872Z,1035.22
2019-04-16T13:18:21.865Z,1034.97
2019-04-16T13:19:21.864Z,1034.98
2019-04-16T13:20:21.854Z,1034.97
2019-04-16T13:21:21.848Z,1034.91
2019-04-16T13:22:21.842Z,1034.84
2019-04-16T13:26:21.818Z,1034.82
2019-04-16T13:27:21.815Z,1034.8
2019-04-16T13:28:23.118Z,1034.86
2019-04-16T13:29:21.800Z,1034.86
2019-04-16T13:30:21.796Z,1034.87
2019-04-16T13:31:21.791Z,1035.12
2019-04-16T13:32:21.782Z,1034.9
2019-04-16T13:33:21.777Z,1034.96
2019-04-16T13:34:21.771Z,1034.92
2019-04-16T13:35:21.767Z,1034.94
2019-04-16T13:37:21.753Z,1034.88
2019-04-16T13:38:21.748Z,1034.89
2019-04-16T13:39:21.741Z,1034.9
2019-04-16T13:40:21.743Z,1034.89
2019-04-16T13:41:25.979Z,1034.88
2019-04-16T13:42:21.729Z,1034.79
2019-04-16T13:43:21.717Z,1034.71
2019-04-16T13:44:21.712Z,1034.72
2019-04-16T13:45:25.926Z,1034.75
2019-04-16T13:46:21.699Z,1034.74
2019-04-16T13:47:21.694Z,1034.68
2019-04-16T13:48:21.817Z,1034.63
2019-04-16T13:49:24.284Z,1034.81
2019-04-16T13:50:21.677Z,1034.71
2019-04-16T13:51:21.670Z,1034.63
2019-04-16T13:52:25.103Z,1034.59
2019-04-16T13:53:22.890Z,1034.74
2019-04-16T13:54:21.652Z,1034.72
2019-04-16T13:55:21.647Z,1034.74
2019-04-16T13:56:21.649Z,1034.69
2019-04-16T13:57:21.634Z,1034.71
2019-04-16T13:58:21.628Z,1034.7
2019-04-16T13:59:21.622Z,1034.68
2019-04-16T14:00:21.627Z,1034.65
2019-04-16T14:01:21.619Z,1034.7
2019-04-16T14:02:21.604Z,1034.78
2019-04-16T14:03:23.731Z,1034.69
2019-04-16T14:04:21.592Z,1034.75
2019-04-16T14:05:21.589Z,1034.75
2019-04-16T14:06:21.580Z,1034.7
2019-04-16T14:07:25.110Z,1034.69
2019-04-16T14:08:21.573Z,1034.63
2019-04-16T14:09:21.562Z,1034.62
2019-04-16T14:10:21.556Z,1034.57
2019-04-16T14:11:21.550Z,1034.47
2019-04-16T14:12:27.862Z,1034.59
2019-04-16T14:13:21.537Z,1034.71
2019-04-16T14:14:22.618Z,1034.61
2019-04-16T14:15:31.508Z,1034.62
2019-04-16T14:16:21.521Z,1034.71
2019-04-16T14:17:21.523Z,1034.72
2019-04-16T14:18:21.833Z,1034.69
2019-04-16T14:19:21.502Z,1034.71
2019-04-16T14:20:21.496Z,1034.72
2019-04-16T14:21:21.490Z,1034.77
2019-04-16T14:22:21.934Z,1034.68
2019-04-16T14:23:21.477Z,1034.67
2019-04-16T14:24:21.471Z,1034.66
2019-04-16T14:25:21.467Z,1034.61
2019-04-16T14:26:21.459Z,1034.64
2019-04-16T14:27:21.454Z,1034.67
2019-04-16T14:28:21.447Z,1034.7
2019-04-16T14:29:24.718Z,1034.69
2019-04-16T14:30:21.451Z,1034.7
2019-04-16T14:31:21.431Z,1034.7
2019-04-16T14:32:21.423Z,1034.73
2019-04-16T14:33:21.417Z,1034.7
2019-04-16T14:34:21.412Z,1034.73
2019-04-16T14:35:32.716Z,1034.75
2019-04-16T14:36:21.399Z,1034.77
2019-04-16T14:37:21.392Z,1034.75
2019-04-16T14:38:21.388Z,1034.82
2019-04-16T14:39:21.380Z,1034.76
2019-04-16T14:40:21.374Z,1034.64
2019-04-16T14:41:21.367Z,1034.73
2019-04-16T14:42:22.204Z,1034.74
2019-04-16T14:43:21.355Z,1034.74
2019-04-16T14:44:21.350Z,1034.79
2019-04-16T14:45:21.343Z,1034.75
2019-04-16T14:46:21.340Z,1034.82
2019-04-16T14:47:21.331Z,1034.79
2019-04-16T14:48:21.326Z,1034.83
2019-04-16T14:49:21.319Z,1034.79
2019-04-16T14:50:23.365Z,1034.81
2019-04-16T14:51:21.307Z,1034.84
2019-04-16T14:52:21.301Z,1034.8
2019-04-16T14:53:21.294Z,1034.79
2019-04-16T14:54:21.288Z,1034.87
2019-04-16T14:55:21.282Z,1034.82
2019-04-16T14:56:21.282Z,1034.91
2019-04-16T14:57:21.269Z,1034.88
2019-04-16T14:58:21.264Z,1034.77
2019-04-16T14:59:30.227Z,1034.85
2019-04-16T15:00:21.251Z,1034.76
2019-04-16T15:01:21.245Z,1034.76
2019-04-16T15:02:21.239Z,1034.91
2019-04-16T15:03:21.231Z,1034.85
2019-04-16T15:04:21.227Z,1034.78
2019-04-16T15:05:21.220Z,1034.84
2019-04-16T15:06:21.214Z,1034.86
2019-04-16T15:07:21.207Z,1034.87
2019-04-16T15:08:21.201Z,1034.87
2019-04-16T15:09:21.195Z,1034.83
2019-04-16T15:10:21.190Z,1034.85
2019-04-16T15:11:21.184Z,1034.85
2019-04-16T15:12:21.178Z,1034.87
2019-04-16T15:13:21.170Z,1034.86
2019-04-16T15:14:23.322Z,1034.85
2019-04-16T15:15:21.158Z,1034.89
2019-04-16T15:16:22.301Z,1034.87
2019-04-16T15:17:21.147Z,1034.81
2019-04-16T15:18:21.948Z,1034.8
2019-04-16T15:19:21.133Z,1035
2019-04-16T15:20:21.127Z,1034.94
2019-04-16T15:21:21.120Z,1034.91
2019-04-16T15:22:21.114Z,1034.93
2019-04-16T15:23:21.111Z,1034.95
2019-04-16T15:24:21.106Z,1034.92
2019-04-16T15:25:21.096Z,1034.92
2019-04-16T15:26:21.089Z,1034.92
2019-04-16T15:27:21.083Z,1034.92
2019-04-16T15:28:21.077Z,1034.94
2019-04-16T15:29:23.408Z,1034.97
2019-04-16T15:30:21.064Z,1034.9
2019-04-16T15:31:21.086Z,1034.95
2019-04-16T15:32:21.051Z,1034.93
2019-04-16T15:33:21.045Z,1034.93
2019-04-16T15:34:21.046Z,1034.94
2019-04-16T15:35:21.031Z,1034.9
2019-04-16T15:36:21.028Z,1035.08
2019-04-16T15:37:22.688Z,1034.92
2019-04-16T15:38:21.014Z,1034.95
2019-04-16T15:39:21.008Z,1034.9
2019-04-16T15:40:21.000Z,1034.9
2019-04-16T15:41:20.994Z,1034.89
2019-04-16T15:42:20.988Z,1034.96
2019-04-16T15:43:20.984Z,1034.97
2019-04-16T15:44:23.523Z,1034.86
2019-04-16T15:45:20.969Z,1034.98
2019-04-16T15:46:25.961Z,1034.94
2019-04-16T15:47:20.956Z,1035.01
2019-04-16T15:48:20.949Z,1035.01
2019-04-16T15:49:23.092Z,1035.01
2019-04-16T15:50:20.937Z,1034.99
2019-04-16T15:51:20.937Z,1035.02
2019-04-16T15:52:20.927Z,1035.03
2019-04-16T15:53:20.918Z,1035.04
2019-04-16T15:54:20.911Z,1035.04
2019-04-16T15:56:20.898Z,1035.04
2019-04-16T15:57:20.892Z,1035.09
2019-04-16T15:58:20.885Z,1035.1
2019-04-16T15:59:20.881Z,1035.15
2019-04-16T16:00:20.872Z,1035.18
2019-04-16T16:01:20.866Z,1035.16
2019-04-16T16:02:20.859Z,1035.12
2019-04-16T16:03:20.852Z,1035.14
2019-04-16T16:04:22.500Z,1035.18
2019-04-16T16:05:20.838Z,1035.18
2019-04-16T16:06:20.835Z,1035.27
2019-04-16T16:07:23.925Z,1035.22
2019-04-16T16:08:20.819Z,1035.23
2019-04-16T16:09:20.812Z,1035.17
2019-04-16T16:10:20.805Z,1035.2
2019-04-16T16:11:20.799Z,1035.25
2019-04-16T16:12:22.244Z,1035.23
2019-04-16T16:13:22.628Z,1035.2
2019-04-16T16:14:20.780Z,1035.17
2019-04-16T16:15:20.774Z,1035.21
2019-04-16T16:16:20.767Z,1035.28
2019-04-16T16:17:22.430Z,1035.23
2019-04-16T16:18:20.755Z,1035.23
2019-04-16T16:19:20.747Z,1035.23
2019-04-16T16:20:20.741Z,1035.21
2019-04-16T16:21:20.735Z,1035.19
2019-04-16T16:22:20.727Z,1035.27
2019-04-16T16:23:20.721Z,1035.24
2019-04-16T16:24:20.714Z,1035.3
2019-04-16T16:25:20.708Z,1035.32
2019-04-16T16:26:20.701Z,1035.3
2019-04-16T16:27:20.694Z,1035.35
2019-04-16T16:28:20.687Z,1035.35
2019-04-16T16:29:20.681Z,1035.38
2019-04-16T16:30:20.674Z,1035.37
2019-04-16T16:31:20.665Z,1035.38
2019-04-16T16:32:20.667Z,1035.43
2019-04-16T16:33:20.654Z,1035.41
2019-04-16T16:34:20.650Z,1035.49
2019-04-16T16:35:20.639Z,1035.46
2019-04-16T16:36:20.635Z,1035.48
2019-04-16T16:37:20.628Z,1035.47
2019-04-16T16:38:21.076Z,1035.57
2019-04-16T16:39:20.615Z,1035.5
2019-04-16T16:40:20.607Z,1035.52
2019-04-16T16:41:20.602Z,1035.52
2019-04-16T16:42:20.593Z,1035.53
2019-04-16T16:43:20.587Z,1035.53
2019-04-16T16:44:20.581Z,1035.57
2019-04-16T16:45:20.578Z,1035.54
2019-04-16T16:46:20.575Z,1035.61
2019-04-16T16:47:20.561Z,1035.63
2019-04-16T16:48:22.018Z,1035.58
2019-04-16T16:49:20.547Z,1035.64
2019-04-16T16:50:20.541Z,1035.63
2019-04-16T16:51:22.979Z,1035.65
2019-04-16T16:52:20.527Z,1035.67
2019-04-16T16:53:20.520Z,1035.73
2019-04-16T16:54:20.513Z,1035.72
2019-04-16T16:55:20.506Z,1035.7
2019-04-16T16:56:21.086Z,1035.76
2019-04-16T16:57:20.493Z,1035.75
2019-04-16T16:58:20.797Z,1035.76
2019-04-16T16:59:20.481Z,1035.79
2019-04-16T17:00:20.686Z,1035.78
2019-04-16T17:01:20.464Z,1035.8
2019-04-16T17:02:20.458Z,1035.78
2019-04-16T17:03:20.453Z,1035.8
2019-04-16T17:04:20.446Z,1035.94
2019-04-16T17:05:20.437Z,1035.84
2019-04-16T17:06:20.434Z,1035.88
2019-04-16T17:07:20.423Z,1035.87
2019-04-16T17:08:20.415Z,1035.86
2019-04-16T17:09:20.424Z,1035.91
2019-04-16T17:10:20.402Z,1035.9
2019-04-16T17:11:20.393Z,1035.94
2019-04-16T17:12:20.388Z,1035.96
2019-04-16T17:13:21.159Z,1035.96
2019-04-16T17:14:20.374Z,1036
2019-04-16T17:15:20.365Z,1036.03
2019-04-16T17:16:20.359Z,1036.07
2019-04-16T17:17:20.352Z,1036.12
2019-04-16T17:18:20.345Z,1036.15
2019-04-16T17:19:20.342Z,1036.19
2019-04-16T17:20:20.331Z,1036.23
2019-04-16T17:21:20.324Z,1036.2
2019-04-16T17:22:20.324Z,1036.18
2019-04-16T17:23:20.308Z,1036.24
2019-04-16T17:24:20.302Z,1036.26
2019-04-16T17:25:35.185Z,1036.28
2019-04-16T17:26:20.293Z,1036.32
2019-04-16T17:27:20.291Z,1036.3
2019-04-16T17:28:20.273Z,1036.35
2019-04-16T17:29:20.264Z,1036.37
2019-04-16T17:30:20.257Z,1036.37
2019-04-16T17:31:20.251Z,1036.39
2019-04-16T17:32:20.315Z,1036.41
2019-04-16T17:33:20.234Z,1036.43
2019-04-16T17:34:20.227Z,1036.48
2019-04-16T17:35:20.222Z,1036.5
2019-04-16T17:36:20.213Z,1036.49
2019-04-16T17:37:20.824Z,1036.54
2019-04-16T17:38:20.201Z,1036.56
2019-04-16T17:39:20.191Z,1036.58
2019-04-16T17:40:20.182Z,1036.62
2019-04-16T17:41:20.176Z,1036.66
2019-04-16T17:42:20.176Z,1036.65
2019-04-16T17:43:20.167Z,1036.71
2019-04-16T17:44:20.152Z,1036.74
2019-04-16T17:45:20.145Z,1036.76
2019-04-16T17:46:20.136Z,1036.78
2019-04-16T17:47:31.718Z,1036.79
2019-04-16T17:48:20.918Z,1036.82
2019-04-16T17:49:20.114Z,1036.85
2019-04-16T17:50:20.115Z,1036.94
2019-04-16T17:51:20.099Z,1036.95
2019-04-16T17:52:20.090Z,1036.99
2019-04-16T17:53:20.083Z,1037.04
2019-04-16T17:54:20.075Z,1037.03
2019-04-16T17:55:20.068Z,1037.05
2019-04-16T17:56:20.059Z,1037.1
2019-04-16T17:57:22.902Z,1037.1
2019-04-16T17:58:20.122Z,1037.12
2019-04-16T17:59:20.035Z,1037.16
2019-04-16T18:00:20.026Z,1037.19
2019-04-16T18:01:20.019Z,1037.26
2019-04-16T18:02:20.009Z,1037.29
2019-04-16T18:03:20.002Z,1037.33
2019-04-16T18:04:19.996Z,1037.38
2019-04-16T18:05:23.244Z,1037.39
2019-04-16T18:06:19.978Z,1037.42
2019-04-16T18:07:19.970Z,1037.45
2019-04-16T18:08:19.962Z,1037.46
2019-04-16T18:09:19.955Z,1037.49
2019-04-16T18:10:22.428Z,1037.55
2019-04-16T18:11:19.937Z,1037.55
2019-04-16T18:12:20.701Z,1037.59
2019-04-16T18:13:19.919Z,1037.65
2019-04-16T18:14:19.912Z,1037.65
2019-04-16T18:15:19.903Z,1037.68
2019-04-16T18:16:20.685Z,1037.78
2019-04-16T18:17:19.918Z,1037.79
2019-04-16T18:18:19.913Z,1037.82
2019-04-16T18:19:19.870Z,1037.84
2019-04-16T18:20:19.861Z,1037.84
2019-04-16T18:21:19.856Z,1037.87
2019-04-16T18:22:19.845Z,1037.91
2019-04-16T18:23:19.837Z,1037.97
2019-04-16T18:24:19.830Z,1037.99
2019-04-16T18:25:21.277Z,1037.99
2019-04-16T18:26:19.810Z,1038.03
2019-04-16T18:27:19.801Z,1038.05
2019-04-16T18:28:19.792Z,1038.08
2019-04-16T18:29:19.784Z,1038.11
2019-04-16T18:30:19.775Z,1038.22
2019-04-16T18:31:23.251Z,1038.21
2019-04-16T18:32:21.162Z,1038.23
2019-04-16T18:33:19.751Z,1038.24
2019-04-16T18:34:19.739Z,1038.26
2019-04-16T18:35:19.731Z,1038.26
2019-04-16T18:36:19.720Z,1038.31
2019-04-16T18:37:19.712Z,1038.29
2019-04-16T18:38:22.098Z,1038.29
2019-04-16T18:39:19.694Z,1038.35
2019-04-16T18:40:19.685Z,1038.4
2019-04-16T18:41:19.677Z,1038.45
2019-04-16T18:42:19.669Z,1038.47
2019-04-16T18:43:19.659Z,1038.47
2019-04-16T18:44:19.649Z,1038.51
2019-04-16T18:45:19.640Z,1038.53
2019-04-16T18:46:19.629Z,1038.52
2019-04-16T18:47:19.622Z,1038.57
2019-04-16T18:48:19.614Z,1038.6
2019-04-16T18:49:19.604Z,1038.65
2019-04-16T18:50:21.931Z,1038.64
2019-04-16T18:51:19.593Z,1038.63
2019-04-16T18:52:19.576Z,1038.71
2019-04-16T18:53:19.565Z,1038.71
2019-04-16T18:54:19.557Z,1038.73
2019-04-16T18:55:19.554Z,1038.74
2019-04-16T18:56:19.539Z,1038.72
2019-04-16T18:57:19.528Z,1038.75
2019-04-16T18:58:19.519Z,1038.8
2019-04-16T18:59:19.511Z,1038.8
2019-04-16T19:00:19.504Z,1038.78
2019-04-16T19:01:19.492Z,1038.81
2019-04-16T19:02:19.494Z,1038.85
2019-04-16T19:03:19.472Z,1038.86
2019-04-16T19:04:19.463Z,1038.89
2019-04-16T19:05:19.454Z,1038.89
2019-04-16T19:06:19.444Z,1038.9
2019-04-16T19:07:19.437Z,1038.9
2019-04-16T19:08:19.425Z,1038.93
2019-04-16T19:09:20.925Z,1038.93
2019-04-16T19:10:19.406Z,1038.97
2019-04-16T19:11:20.395Z,1038.99
2019-04-16T19:12:19.387Z,1038.99
2019-04-16T19:13:19.971Z,1039.05
2019-04-16T19:14:19.369Z,1039.03
2019-04-16T19:15:19.357Z,1039.04
2019-04-16T19:16:19.347Z,1039.04
2019-04-16T19:17:19.338Z,1039.08
2019-04-16T19:18:20.273Z,1039.12
2019-04-16T19:19:21.990Z,1039.09
2019-04-16T19:20:19.310Z,1039.12
2019-04-16T19:21:19.300Z,1039.16
2019-04-16T19:22:19.292Z,1039.19
2019-04-16T19:23:21.334Z,1039.18
2019-04-16T19:24:19.270Z,1039.21
2019-04-16T19:25:19.260Z,1039.24
2019-04-16T19:26:19.250Z,1039.21
2019-04-16T19:27:19.241Z,1039.25
2019-04-16T19:28:20.172Z,1039.24
2019-04-16T19:29:19.221Z,1039.29
2019-04-16T19:30:22.627Z,1039.3
2019-04-16T19:31:22.476Z,1039.27
2019-04-16T19:32:19.197Z,1039.32
2019-04-16T19:33:19.186Z,1039.33
2019-04-16T19:34:19.171Z,1039.35
2019-04-16T19:35:22.168Z,1039.35
2019-04-16T19:36:19.688Z,1039.39
2019-04-16T19:37:19.142Z,1039.38
2019-04-16T19:38:19.132Z,1039.41
2019-04-16T19:39:19.122Z,1039.44
2019-04-16T19:40:19.609Z,1039.46
2019-04-16T19:41:23.098Z,1039.56
2019-04-16T19:42:19.091Z,1039.5
2019-04-16T19:43:19.082Z,1039.52
2019-04-16T19:44:19.072Z,1039.5
2019-04-16T19:45:19.061Z,1039.51
2019-04-16T19:46:19.051Z,1039.54